sensor_id;sensor_type;location;lat;lon;timestamp;pressure;altitude;pressure_sealevel;temperature;humidity
7930;BME280;4010;42.698;23.124;2022-07-06T00:02:06;14816.06;;;-140.64;100.00
7930;BME280;4010;42.698;23.124;2022-07-06T00:04:33;14816.06;;;-140.64;100.00
7930;BME280;4010;42.698;23.124;2022-07-06T00:07:00;13794.03;;;-140.64;100.00
7930;BME280;4010;42.698;23.124;2022-07-06T00:09:28;13538.56;;;-140.64;100.00
7930;BME280;4010;42.698;23.124;2022-07-06T00:11:55;12772.31;;;-140.64;100.00
7930;BME280;4010;42.698;23.124;2022-07-06T00:14:21;12516.94;;;-140.64;100.00
7930;BME280;4010;42.698;23.124;2022-07-06T00:16:48;12261.56;;;-140.64;100.00
7930;BME280;4010;42.698;23.124;2022-07-06T00:19:15;12006.22;;;-140.64;100.00
7930;BME280;4010;42.698;23.124;2022-07-06T00:21:42;11495.59;;;-140.64;100.00
7930;BME280;4010;42.698;23.124;2022-07-06T00:24:08;11495.59;;;-140.64;100.00
7930;BME280;4010;42.698;23.124;2022-07-06T00:26:36;12006.22;;;-140.64;100.00
7930;BME280;4010;42.698;23.124;2022-07-06T00:29:03;11750.91;;;-140.64;100.00
7930;BME280;4010;42.698;23.124;2022-07-06T00:31:30;11750.91;;;-140.64;100.00
7930;BME280;4010;42.698;23.124;2022-07-06T00:33:56;11495.59;;;-140.64;100.00
7930;BME280;4010;42.698;23.124;2022-07-06T00:36:23;11750.91;;;-140.64;100.00
7930;BME280;4010;42.698;23.124;2022-07-06T00:38:50;11750.91;;;-140.64;100.00
7930;BME280;4010;42.698;23.124;2022-07-06T00:41:16;11750.91;;;-140.64;100.00
7930;BME280;4010;42.698;23.124;2022-07-06T00:43:49;11750.91;;;-140.64;100.00
7930;BME280;4010;42.698;23.124;2022-07-06T00:46:16;11750.91;;;-140.64;100.00
7930;BME280;4010;42.698;23.124;2022-07-06T00:48:43;12516.94;;;-140.64;100.00
7930;BME280;4010;42.698;23.124;2022-07-06T00:51:10;12772.31;;;-140.64;100.00
7930;BME280;4010;42.698;23.124;2022-07-06T00:53:37;12772.31;;;-140.64;100.00
7930;BME280;4010;42.698;23.124;2022-07-06T00:56:05;12772.31;;;-140.64;100.00
7930;BME280;4010;42.698;23.124;2022-07-06T00:58:31;13538.56;;;-140.64;100.00
7930;BME280;4010;42.698;23.124;2022-07-06T01:01:00;13538.56;;;-140.64;100.00
7930;BME280;4010;42.698;23.124;2022-07-06T01:03:26;13538.56;;;-140.64;100.00
7930;BME280;4010;42.698;23.124;2022-07-06T01:05:53;13794.03;;;-140.64;100.00
7930;BME280;4010;42.698;23.124;2022-07-06T01:08:20;13027.72;;;-140.64;100.00
7930;BME280;4010;42.698;23.124;2022-07-06T01:10:47;11750.91;;;-140.64;100.00
7930;BME280;4010;42.698;23.124;2022-07-06T01:13:14;11240.31;;;-140.64;100.00
7930;BME280;4010;42.698;23.124;2022-07-06T01:15:40;10219.38;;;-140.64;100.00
7930;BME280;4010;42.698;23.124;2022-07-06T01:18:10;10219.38;;;-140.64;100.00
7930;BME280;4010;42.698;23.124;2022-07-06T01:20:39;10474.59;;;-140.64;100.00
7930;BME280;4010;42.698;23.124;2022-07-06T01:23:06;10985.06;;;-140.64;100.00
7930;BME280;4010;42.698;23.124;2022-07-06T01:25:32;10985.06;;;-140.64;100.00
7930;BME280;4010;42.698;23.124;2022-07-06T01:27:59;10219.38;;;-140.64;100.00
7930;BME280;4010;42.698;23.124;2022-07-06T01:30:26;10474.59;;;-140.64;100.00
7930;BME280;4010;42.698;23.124;2022-07-06T01:32:53;10219.38;;;-140.64;100.00
7930;BME280;4010;42.698;23.124;2022-07-06T01:35:19;9964.19;;;-140.64;100.00
7930;BME280;4010;42.698;23.124;2022-07-06T01:37:48;9709.03;;;-140.64;100.00
7930;BME280;4010;42.698;23.124;2022-07-06T01:40:15;9709.03;;;-140.64;100.00
7930;BME280;4010;42.698;23.124;2022-07-06T01:42:41;9709.03;;;-140.64;100.00
7930;BME280;4010;42.698;23.124;2022-07-06T01:45:09;9198.78;;;-140.64;100.00
7930;BME280;4010;42.698;23.124;2022-07-06T01:47:36;9453.91;;;-140.64;100.00
7930;BME280;4010;42.698;23.124;2022-07-06T01:50:06;8943.66;;;-140.64;100.00
7930;BME280;4010;42.698;23.124;2022-07-06T01:52:33;8178.47;;;-140.64;100.00
7930;BME280;4010;42.698;23.124;2022-07-06T01:55:01;7923.44;;;-140.64;100.00
7930;BME280;4010;42.698;23.124;2022-07-06T01:57:27;7923.44;;;-140.64;100.00
7930;BME280;4010;42.698;23.124;2022-07-06T01:59:54;7413.44;;;-140.64;100.00
7930;BME280;4010;42.698;23.124;2022-07-06T02:02:21;7158.47;;;-140.64;100.00
7930;BME280;4010;42.698;23.124;2022-07-06T02:04:48;6648.63;;;-140.64;100.00
7930;BME280;4010;42.698;23.124;2022-07-06T02:07:14;6648.63;;;-140.64;100.00
7930;BME280;4010;42.698;23.124;2022-07-06T02:09:41;6393.69;;;-140.64;100.00
7930;BME280;4010;42.698;23.124;2022-07-06T02:12:09;6393.69;;;-140.64;100.00
7930;BME280;4010;42.698;23.124;2022-07-06T02:14:36;5883.94;;;-140.64;100.00
7930;BME280;4010;42.698;23.124;2022-07-06T02:17:03;6138.81;;;-140.64;100.00
7930;BME280;4010;42.698;23.124;2022-07-06T02:19:30;6138.81;;;-140.64;100.00
7930;BME280;4010;42.698;23.124;2022-07-06T02:21:56;6393.69;;;-140.64;100.00
7930;BME280;4010;42.698;23.124;2022-07-06T02:24:23;6648.63;;;-140.64;100.00
7930;BME280;4010;42.698;23.124;2022-07-06T02:26:50;6393.69;;;-140.64;100.00
7930;BME280;4010;42.698;23.124;2022-07-06T02:29:18;6393.69;;;-140.64;100.00
7930;BME280;4010;42.698;23.124;2022-07-06T02:31:45;6138.81;;;-140.64;100.00
7930;BME280;4010;42.698;23.124;2022-07-06T02:34:11;6138.81;;;-140.64;100.00
7930;BME280;4010;42.698;23.124;2022-07-06T02:36:38;6393.69;;;-140.64;100.00
7930;BME280;4010;42.698;23.124;2022-07-06T02:39:05;6138.81;;;-140.64;100.00
7930;BME280;4010;42.698;23.124;2022-07-06T02:41:31;5883.94;;;-140.64;100.00
7930;BME280;4010;42.698;23.124;2022-07-06T02:43:58;5629.09;;;-140.64;100.00
7930;BME280;4010;42.698;23.124;2022-07-06T02:46:26;5119.47;;;-140.64;100.00
7930;BME280;4010;42.698;23.124;2022-07-06T02:48:53;5629.09;;;-140.64;100.00
7930;BME280;4010;42.698;23.124;2022-07-06T02:51:20;5119.47;;;-140.64;100.00
7930;BME280;4010;42.698;23.124;2022-07-06T02:53:46;5374.28;;;-140.64;100.00
7930;BME280;4010;42.698;23.124;2022-07-06T02:56:13;5374.28;;;-140.64;100.00
7930;BME280;4010;42.698;23.124;2022-07-06T02:58:40;5629.09;;;-140.64;100.00
7930;BME280;4010;42.698;23.124;2022-07-06T03:01:06;5374.28;;;-140.64;100.00
7930;BME280;4010;42.698;23.124;2022-07-06T03:03:34;5119.47;;;-140.64;100.00
7930;BME280;4010;42.698;23.124;2022-07-06T03:06:01;4609.91;;;-140.64;100.00
7930;BME280;4010;42.698;23.124;2022-07-06T03:08:28;4609.91;;;-140.64;100.00
7930;BME280;4010;42.698;23.124;2022-07-06T03:10:54;4355.16;;;-140.64;100.00
7930;BME280;4010;42.698;23.124;2022-07-06T03:13:21;4100.44;;;-140.64;100.00
7930;BME280;4010;42.698;23.124;2022-07-06T03:15:48;3845.72;;;-140.64;100.00
7930;BME280;4010;42.698;23.124;2022-07-06T03:18:14;3591.03;;;-140.64;100.00
7930;BME280;4010;42.698;23.124;2022-07-06T03:20:42;3845.72;;;-140.64;100.00
7930;BME280;4010;42.698;23.124;2022-07-06T03:23:09;4100.44;;;-140.64;100.00
7930;BME280;4010;42.698;23.124;2022-07-06T03:25:36;3845.72;;;-140.64;100.00
7930;BME280;4010;42.698;23.124;2022-07-06T03:28:03;3081.72;;;-140.64;100.00
7930;BME280;4010;42.698;23.124;2022-07-06T03:30:30;27.44;;;-140.64;100.00
7930;BME280;4010;42.698;23.124;2022-07-06T03:32:56;-2515.63;;;-140.64;100.00
7930;BME280;4010;42.698;23.124;2022-07-06T03:35:23;-4294.59;;;-140.64;100.00
7930;BME280;4010;42.698;23.124;2022-07-06T03:37:51;-3532.28;;;-140.64;100.00
7930;BME280;4010;42.698;23.124;2022-07-06T03:40:18;15327.19;;;-140.64;100.00
7930;BME280;4010;42.698;23.124;2022-07-06T03:42:45;80362.19;;;-140.64;100.00
7930;BME280;4010;42.698;23.124;2022-07-06T03:45:11;118349.16;;;-140.64;100.00
7930;BME280;4010;42.698;23.124;2022-07-06T03:47:38;118349.16;;;-140.64;100.00
7930;BME280;4010;42.698;23.124;2022-07-06T03:50:06;118349.16;;;-140.64;100.00
7930;BME280;4010;42.698;23.124;2022-07-06T03:52:34;118349.16;;;-140.64;100.00
7930;BME280;4010;42.698;23.124;2022-07-06T03:55:07;118349.16;;;-140.64;100.00
7930;BME280;4010;42.698;23.124;2022-07-06T03:57:34;118349.16;;;-140.64;100.00
7930;BME280;4010;42.698;23.124;2022-07-06T04:00:01;118349.16;;;-140.64;100.00
7930;BME280;4010;42.698;23.124;2022-07-06T04:02:27;118349.16;;;-140.64;100.00
7930;BME280;4010;42.698;23.124;2022-07-06T04:04:54;118349.16;;;-140.64;100.00
7930;BME280;4010;42.698;23.124;2022-07-06T04:07:21;118349.16;;;-140.64;100.00
7930;BME280;4010;42.698;23.124;2022-07-06T04:09:47;118349.16;;;-140.64;99.91
7930;BME280;4010;42.698;23.124;2022-07-06T04:12:16;118349.16;;;-140.64;95.86
7930;BME280;4010;42.698;23.124;2022-07-06T04:14:42;118349.16;;;-140.64;91.68
7930;BME280;4010;42.698;23.124;2022-07-06T04:17:09;118349.16;;;-140.64;90.21
7930;BME280;4010;42.698;23.124;2022-07-06T04:19:50;118349.16;;;-140.64;85.70
7930;BME280;4010;42.698;23.124;2022-07-06T04:22:17;118349.16;;;-140.64;85.95
7930;BME280;4010;42.698;23.124;2022-07-06T04:24:43;118349.16;;;-140.64;81.92
7930;BME280;4010;42.698;23.124;2022-07-06T04:27:10;118349.16;;;-140.64;88.55
7930;BME280;4010;42.698;23.124;2022-07-06T04:29:38;118349.16;;;-140.64;95.06
7930;BME280;4010;42.698;23.124;2022-07-06T04:32:06;118349.16;;;-140.64;100.00
7930;BME280;4010;42.698;23.124;2022-07-06T04:34:32;118349.16;;;-140.64;100.00
7930;BME280;4010;42.698;23.124;2022-07-06T04:36:59;118349.16;;;-140.64;100.00
7930;BME280;4010;42.698;23.124;2022-07-06T04:39:26;118349.16;;;-140.64;100.00
7930;BME280;4010;42.698;23.124;2022-07-06T04:41:53;118349.16;;;-140.64;100.00
7930;BME280;4010;42.698;23.124;2022-07-06T04:44:19;118349.16;;;-140.64;100.00
7930;BME280;4010;42.698;23.124;2022-07-06T04:46:47;118349.16;;;-140.64;100.00
7930;BME280;4010;42.698;23.124;2022-07-06T04:49:14;118349.16;;;-140.64;100.00
7930;BME280;4010;42.698;23.124;2022-07-06T04:51:41;118349.16;;;-140.64;100.00
7930;BME280;4010;42.698;23.124;2022-07-06T04:54:08;118349.16;;;-140.64;100.00
7930;BME280;4010;42.698;23.124;2022-07-06T04:56:34;118349.16;;;-140.64;100.00
7930;BME280;4010;42.698;23.124;2022-07-06T04:59:01;118349.16;;;-140.64;100.00
7930;BME280;4010;42.698;23.124;2022-07-06T05:01:28;118349.16;;;-140.64;100.00
7930;BME280;4010;42.698;23.124;2022-07-06T05:03:56;118349.16;;;-140.64;100.00
7930;BME280;4010;42.698;23.124;2022-07-06T05:06:22;118349.16;;;-140.64;100.00
7930;BME280;4010;42.698;23.124;2022-07-06T05:08:49;118349.16;;;-140.64;100.00
7930;BME280;4010;42.698;23.124;2022-07-06T05:11:16;118349.16;;;-140.64;100.00
7930;BME280;4010;42.698;23.124;2022-07-06T05:13:43;118349.16;;;-140.64;100.00
7930;BME280;4010;42.698;23.124;2022-07-06T05:16:10;118349.16;;;-140.64;100.00
7930;BME280;4010;42.698;23.124;2022-07-06T05:18:36;118349.16;;;-140.64;100.00
7930;BME280;4010;42.698;23.124;2022-07-06T05:21:04;118349.16;;;-140.64;100.00
7930;BME280;4010;42.698;23.124;2022-07-06T05:23:31;118349.16;;;-140.64;100.00
7930;BME280;4010;42.698;23.124;2022-07-06T05:25:58;118349.16;;;-140.64;100.00
7930;BME280;4010;42.698;23.124;2022-07-06T05:28:25;118349.16;;;-140.64;100.00
7930;BME280;4010;42.698;23.124;2022-07-06T05:30:51;118349.16;;;-140.64;100.00
7930;BME280;4010;42.698;23.124;2022-07-06T05:33:18;118349.16;;;-140.64;90.33
7930;BME280;4010;42.698;23.124;2022-07-06T05:35:45;118349.16;;;-140.64;90.36
7930;BME280;4010;42.698;23.124;2022-07-06T05:38:13;118349.16;;;-140.64;88.77
7930;BME280;4010;42.698;23.124;2022-07-06T05:40:39;118349.16;;;-140.64;93.96
7930;BME280;4010;42.698;23.124;2022-07-06T05:43:06;118349.16;;;-140.64;95.25
7930;BME280;4010;42.698;23.124;2022-07-06T05:45:33;118349.16;;;-140.64;100.00
7930;BME280;4010;42.698;23.124;2022-07-06T05:48:00;118349.16;;;-140.64;100.00
7930;BME280;4010;42.698;23.124;2022-07-06T05:50:44;118349.16;;;-140.64;100.00
7930;BME280;4010;42.698;23.124;2022-07-06T05:53:10;118349.16;;;-140.64;91.68
7930;BME280;4010;42.698;23.124;2022-07-06T05:55:38;118349.16;;;-140.64;90.74
7930;BME280;4010;42.698;23.124;2022-07-06T05:58:05;118349.16;;;-140.64;85.80
7930;BME280;4010;42.698;23.124;2022-07-06T06:00:32;118349.16;;;-140.64;86.72
7930;BME280;4010;42.698;23.124;2022-07-06T06:02:59;118349.16;;;-140.64;80.15
7930;BME280;4010;42.698;23.124;2022-07-06T06:05:25;118349.16;;;-140.64;86.17
7930;BME280;4010;42.698;23.124;2022-07-06T06:07:52;118349.16;;;-140.64;89.52
7930;BME280;4010;42.698;23.124;2022-07-06T06:10:20;118349.16;;;-140.64;97.73
7930;BME280;4010;42.698;23.124;2022-07-06T06:12:49;118349.16;;;-140.64;100.00
7930;BME280;4010;42.698;23.124;2022-07-06T06:15:16;118349.16;;;-140.64;100.00
7930;BME280;4010;42.698;23.124;2022-07-06T06:17:43;118349.16;;;-140.64;100.00
7930;BME280;4010;42.698;23.124;2022-07-06T06:20:12;118349.16;;;-140.64;100.00
7930;BME280;4010;42.698;23.124;2022-07-06T06:22:50;118349.16;;;-140.64;100.00
7930;BME280;4010;42.698;23.124;2022-07-06T06:25:18;118349.16;;;-140.64;100.00
7930;BME280;4010;42.698;23.124;2022-07-06T06:27:45;118349.16;;;-140.64;100.00
7930;BME280;4010;42.698;23.124;2022-07-06T06:30:14;118349.16;;;-140.64;100.00
7930;BME280;4010;42.698;23.124;2022-07-06T06:32:41;118349.16;;;-140.64;100.00
7930;BME280;4010;42.698;23.124;2022-07-06T06:35:08;118349.16;;;-140.64;100.00
7930;BME280;4010;42.698;23.124;2022-07-06T06:37:35;118349.16;;;-140.64;100.00
7930;BME280;4010;42.698;23.124;2022-07-06T06:40:02;118349.16;;;-140.64;100.00
7930;BME280;4010;42.698;23.124;2022-07-06T06:42:29;118349.16;;;-140.64;100.00
7930;BME280;4010;42.698;23.124;2022-07-06T06:44:56;118349.16;;;-140.64;100.00
7930;BME280;4010;42.698;23.124;2022-07-06T06:47:24;118349.16;;;-140.64;100.00
7930;BME280;4010;42.698;23.124;2022-07-06T06:49:51;118349.16;;;-140.64;100.00
7930;BME280;4010;42.698;23.124;2022-07-06T06:52:17;118349.16;;;-140.64;100.00
7930;BME280;4010;42.698;23.124;2022-07-06T06:54:44;118349.16;;;-140.64;100.00
7930;BME280;4010;42.698;23.124;2022-07-06T06:57:11;118349.16;;;-140.64;100.00
7930;BME280;4010;42.698;23.124;2022-07-06T06:59:38;118349.16;;;-140.64;100.00
7930;BME280;4010;42.698;23.124;2022-07-06T07:02:04;118349.16;;;-140.64;100.00
7930;BME280;4010;42.698;23.124;2022-07-06T07:04:32;118349.16;;;-140.64;100.00
7930;BME280;4010;42.698;23.124;2022-07-06T07:06:59;118349.16;;;-140.64;100.00
7930;BME280;4010;42.698;23.124;2022-07-06T07:09:26;118349.16;;;-140.64;100.00
7930;BME280;4010;42.698;23.124;2022-07-06T07:11:52;118349.16;;;-140.64;100.00
7930;BME280;4010;42.698;23.124;2022-07-06T07:14:20;118349.16;;;-140.64;100.00
7930;BME280;4010;42.698;23.124;2022-07-06T07:16:47;118349.16;;;-140.64;100.00
7930;BME280;4010;42.698;23.124;2022-07-06T07:19:13;118349.16;;;-140.64;100.00
7930;BME280;4010;42.698;23.124;2022-07-06T07:21:41;118349.16;;;-140.64;100.00
7930;BME280;4010;42.698;23.124;2022-07-06T07:24:08;118349.16;;;-140.64;100.00
7930;BME280;4010;42.698;23.124;2022-07-06T07:26:35;118349.16;;;-140.64;100.00
7930;BME280;4010;42.698;23.124;2022-07-06T07:29:02;118349.16;;;-140.64;100.00
7930;BME280;4010;42.698;23.124;2022-07-06T07:31:29;118349.16;;;-140.64;100.00
7930;BME280;4010;42.698;23.124;2022-07-06T07:33:55;118349.16;;;-140.64;100.00
7930;BME280;4010;42.698;23.124;2022-07-06T07:36:24;118349.16;;;-140.64;100.00
7930;BME280;4010;42.698;23.124;2022-07-06T07:38:52;118349.16;;;-140.64;100.00
7930;BME280;4010;42.698;23.124;2022-07-06T07:41:19;118349.16;;;-140.64;100.00
7930;BME280;4010;42.698;23.124;2022-07-06T07:43:46;118349.16;;;-140.64;100.00
7930;BME280;4010;42.698;23.124;2022-07-06T07:46:13;118349.16;;;-140.64;100.00
7930;BME280;4010;42.698;23.124;2022-07-06T07:48:39;118349.16;;;-140.64;100.00
7930;BME280;4010;42.698;23.124;2022-07-06T07:51:12;118349.16;;;-140.64;100.00
7930;BME280;4010;42.698;23.124;2022-07-06T07:53:39;118349.16;;;-140.64;100.00
7930;BME280;4010;42.698;23.124;2022-07-06T07:56:07;118349.16;;;-140.64;100.00
7930;BME280;4010;42.698;23.124;2022-07-06T07:58:34;118349.16;;;-140.64;100.00
7930;BME280;4010;42.698;23.124;2022-07-06T08:01:01;118349.16;;;-140.64;100.00
7930;BME280;4010;42.698;23.124;2022-07-06T08:03:28;118349.16;;;-140.64;100.00
7930;BME280;4010;42.698;23.124;2022-07-06T08:05:55;118349.16;;;-140.64;100.00
7930;BME280;4010;42.698;23.124;2022-07-06T08:08:21;118349.16;;;-140.64;100.00
7930;BME280;4010;42.698;23.124;2022-07-06T08:10:48;118349.16;;;-140.64;100.00
7930;BME280;4010;42.698;23.124;2022-07-06T08:13:16;118349.16;;;-140.64;100.00
7930;BME280;4010;42.698;23.124;2022-07-06T08:15:43;118349.16;;;-140.64;100.00
7930;BME280;4010;42.698;23.124;2022-07-06T08:18:10;118349.16;;;-140.64;100.00
7930;BME280;4010;42.698;23.124;2022-07-06T08:20:37;118349.16;;;-140.64;100.00
7930;BME280;4010;42.698;23.124;2022-07-06T08:23:04;118349.16;;;-140.64;100.00
7930;BME280;4010;42.698;23.124;2022-07-06T08:25:31;118349.16;;;-140.64;100.00
7930;BME280;4010;42.698;23.124;2022-07-06T08:27:58;118349.16;;;-140.64;100.00
7930;BME280;4010;42.698;23.124;2022-07-06T08:30:26;118349.16;;;-140.64;100.00
7930;BME280;4010;42.698;23.124;2022-07-06T08:32:53;118349.16;;;-140.64;100.00
7930;BME280;4010;42.698;23.124;2022-07-06T08:35:20;118349.16;;;-140.64;100.00
7930;BME280;4010;42.698;23.124;2022-07-06T08:37:46;118349.16;;;-140.64;100.00
7930;BME280;4010;42.698;23.124;2022-07-06T08:40:13;118349.16;;;-140.64;100.00
7930;BME280;4010;42.698;23.124;2022-07-06T08:42:41;118349.16;;;-140.64;100.00
7930;BME280;4010;42.698;23.124;2022-07-06T08:45:09;118349.16;;;-140.64;100.00
7930;BME280;4010;42.698;23.124;2022-07-06T08:47:37;118349.16;;;-140.64;100.00
7930;BME280;4010;42.698;23.124;2022-07-06T08:50:05;118349.16;;;-140.64;100.00
7930;BME280;4010;42.698;23.124;2022-07-06T08:52:32;118349.16;;;-140.64;100.00
7930;BME280;4010;42.698;23.124;2022-07-06T08:54:59;118349.16;;;-140.64;100.00
7930;BME280;4010;42.698;23.124;2022-07-06T08:57:26;118349.16;;;-140.64;100.00
7930;BME280;4010;42.698;23.124;2022-07-06T08:59:53;118349.16;;;-140.64;100.00
7930;BME280;4010;42.698;23.124;2022-07-06T09:02:24;118349.16;;;-140.64;100.00
7930;BME280;4010;42.698;23.124;2022-07-06T09:04:54;118349.16;;;-140.64;100.00
7930;BME280;4010;42.698;23.124;2022-07-06T09:07:21;118349.16;;;-140.64;100.00
7930;BME280;4010;42.698;23.124;2022-07-06T09:09:49;118349.16;;;-140.64;100.00
7930;BME280;4010;42.698;23.124;2022-07-06T09:12:16;118349.16;;;-140.64;100.00
7930;BME280;4010;42.698;23.124;2022-07-06T09:14:43;118349.16;;;-140.64;100.00
7930;BME280;4010;42.698;23.124;2022-07-06T09:17:09;118349.16;;;-140.64;100.00
7930;BME280;4010;42.698;23.124;2022-07-06T09:19:38;118349.16;;;-140.64;100.00
7930;BME280;4010;42.698;23.124;2022-07-06T09:22:06;118349.16;;;-140.64;100.00
7930;BME280;4010;42.698;23.124;2022-07-06T09:24:41;118349.16;;;-140.64;100.00
7930;BME280;4010;42.698;23.124;2022-07-06T09:27:15;118349.16;;;-140.64;100.00
7930;BME280;4010;42.698;23.124;2022-07-06T09:29:42;118349.16;;;-140.64;100.00
7930;BME280;4010;42.698;23.124;2022-07-06T09:32:09;118349.16;;;-140.64;100.00
7930;BME280;4010;42.698;23.124;2022-07-06T09:34:43;118349.16;;;-140.64;100.00
7930;BME280;4010;42.698;23.124;2022-07-06T09:37:12;118349.16;;;-140.64;100.00
7930;BME280;4010;42.698;23.124;2022-07-06T09:39:39;118349.16;;;-140.64;100.00
7930;BME280;4010;42.698;23.124;2022-07-06T09:42:07;118349.16;;;-140.64;100.00
7930;BME280;4010;42.698;23.124;2022-07-06T09:44:35;118349.16;;;-140.64;100.00
7930;BME280;4010;42.698;23.124;2022-07-06T09:47:04;118349.16;;;-140.64;100.00
7930;BME280;4010;42.698;23.124;2022-07-06T09:49:31;118349.16;;;-140.64;100.00
7930;BME280;4010;42.698;23.124;2022-07-06T09:51:59;118349.16;;;-140.64;96.78
7930;BME280;4010;42.698;23.124;2022-07-06T09:54:27;118349.16;;;-140.64;100.00
7930;BME280;4010;42.698;23.124;2022-07-06T09:56:55;118349.16;;;-140.64;97.25
7930;BME280;4010;42.698;23.124;2022-07-06T09:59:23;118349.16;;;-140.64;97.93
7930;BME280;4010;42.698;23.124;2022-07-06T10:01:53;118349.16;;;-140.64;93.01
7930;BME280;4010;42.698;23.124;2022-07-06T10:04:20;118349.16;;;-140.64;93.81
7930;BME280;4010;42.698;23.124;2022-07-06T10:06:48;118349.16;;;-140.64;96.82
7930;BME280;4010;42.698;23.124;2022-07-06T10:09:15;118349.16;;;-140.64;94.91
7930;BME280;4010;42.698;23.124;2022-07-06T10:11:45;118349.16;;;-140.64;100.00
7930;BME280;4010;42.698;23.124;2022-07-06T10:14:17;118349.16;;;-140.64;97.62
7930;BME280;4010;42.698;23.124;2022-07-06T10:16:45;118349.16;;;-140.64;94.60
7930;BME280;4010;42.698;23.124;2022-07-06T10:19:13;118349.16;;;-140.64;94.06
7930;BME280;4010;42.698;23.124;2022-07-06T10:21:42;118349.16;;;-140.64;100.00
7930;BME280;4010;42.698;23.124;2022-07-06T10:24:12;118349.16;;;-140.64;100.00
7930;BME280;4010;42.698;23.124;2022-07-06T10:26:40;118349.16;;;-140.64;100.00
7930;BME280;4010;42.698;23.124;2022-07-06T10:29:09;118349.16;;;-140.64;100.00
7930;BME280;4010;42.698;23.124;2022-07-06T10:31:39;118349.16;;;-140.64;100.00
7930;BME280;4010;42.698;23.124;2022-07-06T10:34:09;118349.16;;;-140.64;100.00
7930;BME280;4010;42.698;23.124;2022-07-06T10:36:38;118349.16;;;-140.64;100.00
7930;BME280;4010;42.698;23.124;2022-07-06T10:39:05;118349.16;;;-140.64;100.00
7930;BME280;4010;42.698;23.124;2022-07-06T10:41:46;118349.16;;;-140.64;100.00
7930;BME280;4010;42.698;23.124;2022-07-06T10:44:18;118349.16;;;-140.64;100.00
7930;BME280;4010;42.698;23.124;2022-07-06T10:46:55;118349.16;;;-140.64;98.54
7930;BME280;4010;42.698;23.124;2022-07-06T10:49:24;118349.16;;;-140.64;100.00
7930;BME280;4010;42.698;23.124;2022-07-06T10:51:51;118349.16;;;-140.64;100.00
7930;BME280;4010;42.698;23.124;2022-07-06T10:54:19;118349.16;;;-140.64;99.91
7930;BME280;4010;42.698;23.124;2022-07-06T10:56:49;118349.16;;;-140.64;100.00
7930;BME280;4010;42.698;23.124;2022-07-06T10:59:19;118349.16;;;-140.64;99.33
7930;BME280;4010;42.698;23.124;2022-07-06T11:02:12;118349.16;;;-140.64;94.72
7930;BME280;4010;42.698;23.124;2022-07-06T11:04:39;118349.16;;;-140.64;98.15
7930;BME280;4010;42.698;23.124;2022-07-06T11:07:11;118349.16;;;-140.64;98.89
7930;BME280;4010;42.698;23.124;2022-07-06T11:09:38;118349.16;;;-140.64;99.61
7930;BME280;4010;42.698;23.124;2022-07-06T11:12:15;118349.16;;;-140.64;98.57
7930;BME280;4010;42.698;23.124;2022-07-06T11:14:45;118349.16;;;-140.64;97.74
7930;BME280;4010;42.698;23.124;2022-07-06T11:17:13;118349.16;;;-140.64;98.04
7930;BME280;4010;42.698;23.124;2022-07-06T11:19:48;118349.16;;;-140.64;95.00
7930;BME280;4010;42.698;23.124;2022-07-06T11:22:16;118349.16;;;-140.64;96.09
7930;BME280;4010;42.698;23.124;2022-07-06T11:24:44;118349.16;;;-140.64;96.05
7930;BME280;4010;42.698;23.124;2022-07-06T11:27:22;118349.16;;;-140.64;97.03
7930;BME280;4010;42.698;23.124;2022-07-06T11:29:50;118349.16;;;-140.64;95.73
7930;BME280;4010;42.698;23.124;2022-07-06T11:32:23;118349.16;;;-140.64;99.33
7930;BME280;4010;42.698;23.124;2022-07-06T11:34:50;118349.16;;;-140.64;100.00
7930;BME280;4010;42.698;23.124;2022-07-06T11:37:16;118349.16;;;-140.64;100.00
7930;BME280;4010;42.698;23.124;2022-07-06T11:39:45;118349.16;;;-140.64;100.00
7930;BME280;4010;42.698;23.124;2022-07-06T11:42:13;118349.16;;;-140.64;99.59
7930;BME280;4010;42.698;23.124;2022-07-06T11:44:41;118349.16;;;-140.64;100.00
7930;BME280;4010;42.698;23.124;2022-07-06T11:47:11;118349.16;;;-140.64;99.57
7930;BME280;4010;42.698;23.124;2022-07-06T11:49:38;118349.16;;;-140.64;99.51
7930;BME280;4010;42.698;23.124;2022-07-06T11:52:06;118349.16;;;-140.64;100.00
7930;BME280;4010;42.698;23.124;2022-07-06T11:54:33;118349.16;;;-140.64;97.10
7930;BME280;4010;42.698;23.124;2022-07-06T11:57:01;118349.16;;;-140.64;97.71
7930;BME280;4010;42.698;23.124;2022-07-06T11:59:30;118349.16;;;-140.64;96.63
7930;BME280;4010;42.698;23.124;2022-07-06T12:01:58;118349.16;;;-140.64;93.02
7930;BME280;4010;42.698;23.124;2022-07-06T12:04:26;118349.16;;;-140.64;96.81
7930;BME280;4010;42.698;23.124;2022-07-06T12:06:53;118349.16;;;-140.64;90.64
7930;BME280;4010;42.698;23.124;2022-07-06T12:09:21;118349.16;;;-140.64;98.72
7930;BME280;4010;42.698;23.124;2022-07-06T12:11:48;118349.16;;;-140.64;90.17
7930;BME280;4010;42.698;23.124;2022-07-06T12:14:16;118349.16;;;-140.64;94.15
7930;BME280;4010;42.698;23.124;2022-07-06T12:16:44;118349.16;;;-140.64;94.72
7930;BME280;4010;42.698;23.124;2022-07-06T12:19:11;118349.16;;;-140.64;92.02
7930;BME280;4010;42.698;23.124;2022-07-06T12:21:44;118349.16;;;-140.64;90.86
7930;BME280;4010;42.698;23.124;2022-07-06T12:24:17;118349.16;;;-140.64;93.19
7930;BME280;4010;42.698;23.124;2022-07-06T12:26:45;118349.16;;;-140.64;89.89
7930;BME280;4010;42.698;23.124;2022-07-06T12:29:12;118349.16;;;-140.64;93.12
7930;BME280;4010;42.698;23.124;2022-07-06T12:31:41;118349.16;;;-140.64;94.53
7930;BME280;4010;42.698;23.124;2022-07-06T12:34:13;118349.16;;;-140.64;88.39
7930;BME280;4010;42.698;23.124;2022-07-06T12:36:46;118349.16;;;-140.64;88.11
7930;BME280;4010;42.698;23.124;2022-07-06T12:39:14;118349.16;;;-140.64;90.28
7930;BME280;4010;42.698;23.124;2022-07-06T12:41:46;118349.16;;;-140.64;91.33